createdAt,value
2019-04-11T00:01:53.461Z,68.61
2019-04-11T00:04:01.889Z,68.23
2019-04-11T00:06:11.804Z,69.97
2019-04-11T00:08:19.836Z,69.72
2019-04-11T00:10:29.147Z,69.14
2019-04-11T00:12:38.904Z,69.40
2019-04-11T00:14:46.997Z,70.22
2019-04-11T00:16:55.411Z,69.33
2019-04-11T00:19:03.513Z,69.69
2019-04-11T00:21:11.353Z,69.21
2019-04-11T00:23:19.058Z,70.15
2019-04-11T00:25:27.790Z,69.51
2019-04-11T00:27:35.608Z,70.16
2019-04-11T00:29:43.483Z,70.38
2019-04-11T00:31:51.258Z,70.04
2019-04-11T00:33:59.134Z,69.73
2019-04-11T00:36:08.483Z,70.42
2019-04-11T00:38:16.245Z,69.65
2019-04-11T00:40:24.879Z,69.56
2019-04-11T00:42:32.845Z,70.55
2019-04-11T00:44:41.182Z,70.20
2019-04-11T00:46:48.973Z,69.19
2019-04-11T00:48:57.699Z,68.91
2019-04-11T00:51:07.691Z,69.13
2019-04-11T00:53:16.014Z,69.65
2019-04-11T00:55:24.748Z,69.43
2019-04-11T00:57:33.491Z,68.94
2019-04-11T00:59:42.405Z,69.64
2019-04-11T01:01:51.573Z,69.13
2019-04-11T01:03:59.332Z,68.75
2019-04-11T01:06:08.315Z,69.15
2019-04-11T01:08:16.134Z,68.64
2019-04-11T01:10:24.538Z,68.77
2019-04-11T01:12:34.398Z,68.47
2019-04-11T01:14:42.725Z,69.21
2019-04-11T01:16:52.682Z,68.92
2019-04-11T01:19:00.623Z,69.32
2019-04-11T01:21:10.250Z,69.52
2019-04-11T01:23:18.566Z,68.91
2019-04-11T01:25:26.332Z,69.53
2019-04-11T01:27:36.149Z,69.73
2019-04-11T01:29:44.089Z,68.90
2019-04-11T01:31:54.753Z,69.65
2019-04-11T01:34:04.442Z,69.38
2019-04-11T01:36:13.695Z,69.02
2019-04-11T01:38:23.689Z,69.12
2019-04-11T01:40:31.903Z,68.53
2019-04-11T01:42:39.859Z,68.89
2019-04-11T01:44:47.775Z,68.96
2019-04-11T01:46:56.284Z,68.96
2019-04-11T01:49:12.242Z,69.89
2019-04-11T01:51:21.189Z,70.52
2019-04-11T01:53:29.196Z,71.04
2019-04-11T01:55:36.968Z,71.39
2019-04-11T01:57:44.751Z,72.05
2019-04-11T01:59:53.396Z,72.19
2019-04-11T02:02:03.431Z,73.71
2019-04-11T02:04:18.074Z,74.31
2019-04-11T02:06:26.117Z,72.37
2019-04-11T02:08:33.904Z,73.17
2019-04-11T02:10:43.338Z,73.57
2019-04-11T02:12:51.170Z,73.98
2019-04-11T02:14:59.800Z,73.43
2019-04-11T02:17:08.538Z,74.60
2019-04-11T02:19:16.644Z,75.30
2019-04-11T02:21:25.349Z,74.49
2019-04-11T02:23:51.147Z,74.70
2019-04-11T02:26:13.390Z,75.35
2019-04-11T02:28:22.497Z,76.32
2019-04-11T02:30:31.333Z,76.24
2019-04-11T02:32:40.411Z,76.65
2019-04-11T02:34:50.654Z,75.76
2019-04-11T02:37:00.081Z,76.42
2019-04-11T02:39:14.923Z,76.00
2019-04-11T02:41:21.120Z,75.84
2019-04-11T02:43:29.552Z,76.23
2019-04-11T02:45:51.673Z,76.68
2019-04-11T02:47:50.991Z,76.61
2019-04-11T02:49:59.176Z,76.86
2019-04-11T02:52:07.449Z,77.53
2019-04-11T02:54:18.170Z,77.64
2019-04-11T02:56:28.705Z,77.45
2019-04-11T02:58:37.018Z,77.28
2019-04-11T03:00:46.299Z,77.26
2019-04-11T03:02:54.293Z,77.78
2019-04-11T03:05:03.429Z,78.58
2019-04-11T03:07:12.367Z,77.79
2019-04-11T03:09:22.155Z,77.48
2019-04-11T03:11:30.503Z,78.45
2019-04-11T03:13:38.935Z,79.28
2019-04-11T03:16:00.541Z,78.37
2019-04-11T03:18:01.947Z,78.36
2019-04-11T03:20:17.062Z,78.12
2019-04-11T03:22:18.231Z,78.85
2019-04-11T03:24:27.161Z,78.45
2019-04-11T03:26:37.777Z,78.39
2019-04-11T03:28:50.189Z,78.44
2019-04-11T03:31:26.813Z,78.28
2019-04-11T03:37:53.899Z,78.05
2019-04-11T03:39:56.863Z,78.15
2019-04-11T03:42:03.958Z,78.42
2019-04-11T03:44:04.319Z,78.88
2019-04-11T03:46:24.972Z,78.56
2019-04-11T03:48:29.017Z,79.29
2019-04-11T03:50:30.460Z,78.92
2019-04-11T03:52:36.706Z,80.30
2019-04-11T03:54:45.503Z,80.37
2019-04-11T03:56:54.014Z,79.50
2019-04-11T03:59:03.812Z,79.48
2019-04-11T04:01:11.846Z,79.85
2019-04-11T04:03:20.325Z,79.34
2019-04-11T04:05:32.403Z,80.38
2019-04-11T04:07:40.473Z,79.50
2019-04-11T04:09:49.063Z,80.16
2019-04-11T04:11:58.987Z,80.77
2019-04-11T04:14:08.408Z,79.60
2019-04-11T04:16:40.862Z,78.45
2019-04-11T04:18:45.820Z,77.89
2019-04-11T04:21:10.578Z,76.96
2019-04-11T04:23:20.844Z,76.96
2019-04-11T04:25:29.122Z,78.61
2019-04-11T04:27:38.634Z,77.98
2019-04-11T04:29:51.849Z,77.78
2019-04-11T04:31:59.368Z,77.48
2019-04-11T04:34:07.285Z,77.27
2019-04-11T04:36:17.773Z,77.23
2019-04-11T04:38:25.215Z,76.57
2019-04-11T04:40:50.018Z,76.98
2019-04-11T04:42:50.182Z,77.76
2019-04-11T04:44:55.805Z,77.20
2019-04-11T04:47:13.725Z,77.48
2019-04-11T04:49:15.175Z,78.25
2019-04-11T04:51:24.334Z,77.26
2019-04-11T04:53:33.747Z,77.00
2019-04-11T04:55:43.573Z,77.03
2019-04-11T04:57:53.283Z,77.43
2019-04-11T05:00:02.576Z,76.93
2019-04-11T05:02:12.644Z,76.56
2019-04-11T05:04:21.061Z,75.81
2019-04-11T05:06:29.017Z,75.83
2019-04-11T05:08:36.715Z,76.29
2019-04-11T05:10:44.957Z,75.08
2019-04-11T05:12:52.945Z,74.69
2019-04-11T05:15:01.541Z,74.14
2019-04-11T05:17:10.744Z,73.83
2019-04-11T05:19:19.084Z,73.39
2019-04-11T05:21:27.629Z,73.07
2019-04-11T05:23:35.479Z,72.77
2019-04-11T05:25:44.557Z,72.99
2019-04-11T05:27:52.483Z,73.10
2019-04-11T05:30:02.834Z,72.07
2019-04-11T05:32:11.346Z,72.07
2019-04-11T05:34:20.259Z,72.51
2019-04-11T05:36:28.372Z,71.60
2019-04-11T05:38:36.208Z,72.69
2019-04-11T05:40:44.069Z,71.81
2019-04-11T05:42:54.204Z,71.97
2019-04-11T05:45:01.221Z,71.62
2019-04-11T05:47:09.098Z,71.64
2019-04-11T05:49:31.209Z,71.62
2019-04-11T05:51:41.657Z,71.49
2019-04-11T05:53:48.934Z,72.81
2019-04-11T05:55:59.427Z,72.73
2019-04-11T05:58:11.418Z,73.09
2019-04-11T06:00:25.015Z,72.58
2019-04-11T06:02:35.305Z,71.50
2019-04-11T06:04:51.956Z,71.97
2019-04-11T06:07:03.170Z,71.82
2019-04-11T06:09:16.778Z,71.75
2019-04-11T06:11:28.445Z,72.25
2019-04-11T06:13:38.015Z,71.12
2019-04-11T06:15:47.425Z,71.36
2019-04-11T06:17:55.101Z,71.29
2019-04-11T06:20:25.115Z,70.72
2019-04-11T06:22:32.499Z,70.55
2019-04-11T06:24:56.447Z,71.53
2019-04-11T06:27:18.069Z,72.11
2019-04-11T06:29:36.957Z,71.25
2019-04-11T06:31:49.408Z,72.12
2019-04-11T06:33:59.004Z,71.26
2019-04-11T06:36:06.623Z,72.10
2019-04-11T06:38:32.439Z,71.17
2019-04-11T06:40:54.413Z,71.25
2019-04-11T06:43:18.307Z,71.28
2019-04-11T06:45:44.239Z,69.98
2019-04-11T06:47:56.995Z,69.73
2019-04-11T06:50:22.999Z,70.36
2019-04-11T06:52:32.823Z,70.53
2019-04-11T06:54:52.404Z,69.81
2019-04-11T06:57:02.013Z,70.42
2019-04-11T06:59:12.221Z,70.70
2019-04-11T07:01:22.418Z,71.51
2019-04-11T07:03:32.491Z,71.89
2019-04-11T07:05:42.634Z,71.49
2019-04-11T07:07:52.132Z,70.84
2019-04-11T07:10:02.106Z,70.82
2019-04-11T07:12:28.647Z,69.71
2019-04-11T07:14:55.117Z,70.10
2019-04-11T07:17:21.133Z,70.53
2019-04-11T07:19:30.766Z,69.65
2019-04-11T07:21:39.689Z,69.15
2019-04-11T07:24:05.447Z,69.58
2019-04-11T07:26:20.943Z,68.88
2019-04-11T07:28:33.731Z,68.04
2019-04-11T07:31:00.447Z,69.14
2019-04-11T07:33:28.812Z,67.95
2019-04-11T07:35:55.419Z,68.43
2019-04-11T07:38:03.234Z,68.15
2019-04-11T07:40:11.574Z,67.05
2019-04-11T07:42:26.799Z,67.10
2019-04-11T07:44:35.409Z,67.91
2019-04-11T07:47:12.860Z,67.13
2019-04-11T07:49:10.491Z,68.78
2019-04-11T07:51:19.878Z,67.78
2019-04-11T07:53:28.557Z,66.60
2019-04-11T07:55:38.701Z,68.31
2019-04-11T07:57:48.974Z,67.79
2019-04-11T08:00:08.271Z,66.24
2019-04-11T08:02:24.090Z,66.71
2019-04-11T08:04:49.544Z,67.82
2019-04-11T08:07:05.434Z,67.24
2019-04-11T08:09:26.708Z,67.29
2019-04-11T08:11:36.444Z,66.13
2019-04-11T08:14:02.294Z,67.27
2019-04-11T08:16:28.990Z,67.87
2019-04-11T08:18:45.438Z,67.96
2019-04-11T08:21:04.215Z,67.79
2019-04-11T08:23:12.086Z,66.36
2019-04-11T08:25:21.634Z,65.78
2019-04-11T08:27:50.015Z,67.83
2019-04-11T08:29:51.540Z,67.93
2019-04-11T08:32:09.506Z,68.65
2019-04-11T08:34:21.886Z,67.20
2019-04-11T08:36:29.634Z,66.84
2019-04-11T08:38:37.377Z,66.26
2019-04-11T08:41:03.102Z,67.95
2019-04-11T08:43:12.981Z,66.31
2019-04-11T08:45:23.742Z,66.67
2019-04-11T08:47:44.744Z,67.03
2019-04-11T08:49:45.913Z,65.33
2019-04-11T08:51:56.092Z,65.57
2019-04-11T08:54:21.835Z,65.84
2019-04-11T08:56:29.636Z,65.86
2019-04-11T08:58:53.851Z,65.41
2019-04-11T09:01:03.475Z,65.70
2019-04-11T09:03:20.165Z,66.52
2019-04-11T09:05:45.688Z,66.18
2019-04-11T09:07:56.141Z,65.51
2019-04-11T09:10:24.151Z,67.81
2019-04-11T09:12:32.135Z,67.95
2019-04-11T09:14:52.682Z,68.07
2019-04-11T09:17:05.910Z,67.96
2019-04-11T09:19:25.070Z,68.17
2019-04-11T09:21:51.026Z,68.34
2019-04-11T09:23:59.667Z,68.18
2019-04-11T09:26:09.831Z,68.13
2019-04-11T09:28:19.722Z,65.49
2019-04-11T09:30:45.621Z,66.47
2019-04-11T09:33:10.952Z,65.92
2019-04-11T09:35:33.442Z,65.43
2019-04-11T09:37:44.228Z,66.07
2019-04-11T09:39:55.171Z,66.88
2019-04-11T09:42:22.716Z,67.26
2019-04-11T09:44:46.726Z,66.72
2019-04-11T09:47:09.513Z,66.41
2019-04-11T09:49:18.388Z,66.53
2019-04-11T09:51:29.467Z,65.71
2019-04-11T09:53:41.064Z,65.98
2019-04-11T09:56:02.659Z,66.10
2019-04-11T09:58:25.294Z,67.48
2019-04-11T10:00:51.163Z,67.75
2019-04-11T10:03:03.336Z,69.04
2019-04-11T10:05:13.767Z,68.37
2019-04-11T10:07:23.760Z,68.47
2019-04-11T10:09:48.491Z,67.22
2019-04-11T10:12:15.813Z,67.49
2019-04-11T10:14:24.031Z,66.86
2019-04-11T10:16:34.148Z,66.12
2019-04-11T10:18:47.798Z,67.06
2019-04-11T10:20:57.076Z,67.54
2019-04-11T10:23:10.644Z,67.98
2019-04-11T10:25:21.243Z,66.77
2019-04-11T10:27:28.955Z,66.30
2019-04-11T10:29:36.581Z,65.48
2019-04-11T10:31:48.860Z,65.43
2019-04-11T10:33:59.418Z,64.02
2019-04-11T10:36:21.444Z,64.41
2019-04-11T10:38:29.253Z,65.43
2019-04-11T10:40:48.232Z,64.80
2019-04-11T10:42:56.069Z,63.29
2019-04-11T10:45:25.315Z,62.46
2019-04-11T10:47:34.629Z,62.33
2019-04-11T10:49:42.208Z,62.75
2019-04-11T10:51:56.064Z,62.54
2019-04-11T10:54:05.841Z,62.11
2019-04-11T10:56:19.148Z,61.75
2019-04-11T10:58:28.877Z,61.14
2019-04-11T11:00:39.641Z,61.40
2019-04-11T11:02:53.650Z,60.56
2019-04-11T11:05:01.582Z,61.00
2019-04-11T11:07:11.466Z,61.33
2019-04-11T11:09:30.287Z,61.26
2019-04-11T11:11:42.310Z,60.41
2019-04-11T11:13:52.111Z,61.30
2019-04-11T11:16:00.300Z,60.55
2019-04-11T11:19:13.951Z,60.46
2019-04-11T11:20:41.477Z,59.69
2019-04-11T11:22:49.102Z,58.44
2019-04-11T11:25:11.597Z,58.71
2019-04-11T11:27:18.546Z,58.79
2019-04-11T11:29:29.071Z,58.56
2019-04-11T11:31:36.561Z,57.78
2019-04-11T11:33:45.309Z,57.14
2019-04-11T11:36:10.739Z,57.08
2019-04-11T11:38:19.901Z,56.85
2019-04-11T11:40:44.700Z,56.48
2019-04-11T11:43:09.147Z,57.16
2019-04-11T11:45:25.621Z,58.19
2019-04-11T11:47:46.978Z,57.27
2019-04-11T11:50:00.518Z,56.39
2019-04-11T11:52:07.535Z,55.95
2019-04-11T11:54:19.919Z,55.98
2019-04-11T11:56:27.841Z,55.95
2019-04-11T11:58:47.884Z,55.48
2019-04-11T12:00:57.236Z,56.35
2019-04-11T12:03:12.889Z,55.75
2019-04-11T12:05:22.433Z,54.89
2019-04-11T12:07:39.340Z,54.71
2019-04-11T12:10:04.983Z,54.64
2019-04-11T12:12:31.534Z,54.14
2019-04-11T12:14:57.582Z,55.44
2019-04-11T12:17:16.446Z,55.83
2019-04-11T12:19:26.870Z,55.30
2019-04-11T12:21:36.747Z,55.10
2019-04-11T12:24:03.784Z,54.68
2019-04-11T12:26:07.540Z,55.27
2019-04-11T12:28:27.681Z,54.52
2019-04-11T12:30:37.504Z,54.49
2019-04-11T12:32:49.740Z,54.97
2019-04-11T12:35:17.830Z,56.18
2019-04-11T12:37:29.854Z,53.67
2019-04-11T12:39:45.261Z,53.78
2019-04-11T12:41:54.776Z,54.01
2019-04-11T12:44:05.303Z,53.62
2019-04-11T12:46:30.836Z,52.86
2019-04-11T12:48:39.998Z,53.09
2019-04-11T12:50:57.450Z,52.90
2019-04-11T12:53:07.991Z,52.06
2019-04-11T12:55:17.394Z,51.79
2019-04-11T12:57:42.994Z,51.87
2019-04-11T12:59:52.494Z,52.58
2019-04-11T13:02:10.962Z,52.79
2019-04-11T13:04:23.632Z,51.69
2019-04-11T13:06:49.072Z,52.31
2019-04-11T13:09:14.541Z,51.89
2019-04-11T13:11:23.940Z,50.66
2019-04-11T13:13:42.138Z,51.06
2019-04-11T13:15:54.554Z,51.03
2019-04-11T13:18:19.890Z,51.50
2019-04-11T13:20:47.000Z,50.23
2019-04-11T13:23:03.770Z,49.88
2019-04-11T13:25:25.176Z,49.65
2019-04-11T13:27:34.645Z,48.91
2019-04-11T13:29:42.331Z,49.88
2019-04-11T13:31:52.645Z,50.84
2019-04-11T13:34:03.795Z,49.85
2019-04-11T13:36:29.762Z,48.97
2019-04-11T13:38:38.310Z,49.69
2019-04-11T13:40:46.326Z,46.87
2019-04-11T13:43:12.075Z,48.32
2019-04-11T13:45:19.958Z,47.97
2019-04-11T13:47:39.530Z,47.55
2019-04-11T13:49:49.195Z,47.05
2019-04-11T13:52:01.359Z,46.92
2019-04-11T13:54:26.903Z,46.82
2019-04-11T13:56:36.361Z,46.07
2019-04-11T13:59:02.019Z,46.62
2019-04-11T14:01:10.349Z,46.69
2019-04-11T14:03:20.844Z,46.44
2019-04-11T14:05:30.261Z,46.19
2019-04-11T14:07:38.415Z,45.74
2019-04-11T14:09:50.547Z,46.31
2019-04-11T14:11:58.397Z,45.74
2019-04-11T14:14:12.064Z,45.27
2019-04-11T14:16:21.589Z,45.42
2019-04-11T14:18:30.996Z,45.10
2019-04-11T14:20:44.561Z,45.21
2019-04-11T14:23:01.371Z,45.58
2019-04-11T14:25:14.964Z,45.20
2019-04-11T14:27:29.023Z,45.67
2019-04-11T14:29:41.193Z,45.92
2019-04-11T14:31:54.598Z,46.44
2019-04-11T14:34:20.367Z,46.69
2019-04-11T14:36:47.038Z,46.75
2019-04-11T14:38:56.453Z,46.94
2019-04-11T14:41:12.436Z,46.16
2019-04-11T14:43:22.682Z,46.93
2019-04-11T14:45:42.568Z,46.50
2019-04-11T14:48:10.208Z,46.43
2019-04-11T14:50:18.203Z,45.67
2019-04-11T14:52:31.656Z,45.54
2019-04-11T14:54:40.994Z,46.13
2019-04-11T14:57:00.560Z,45.83
2019-04-11T14:59:13.338Z,45.33
2019-04-11T15:01:23.726Z,45.42
2019-04-11T15:03:43.138Z,45.52
2019-04-11T15:06:02.613Z,45.72
2019-04-11T15:08:12.334Z,45.85
2019-04-11T15:10:40.140Z,45.00
2019-04-11T15:12:48.814Z,45.70
2019-04-11T15:14:56.339Z,45.63
2019-04-11T15:17:03.965Z,45.24
2019-04-11T15:19:12.329Z,44.79
2019-04-11T15:21:25.780Z,44.09
2019-04-11T15:23:37.522Z,45.66
2019-04-11T15:25:44.425Z,46.41
2019-04-11T15:27:54.636Z,47.01
2019-04-11T15:30:04.138Z,47.17
2019-04-11T15:32:16.386Z,46.89
2019-04-11T15:34:28.699Z,46.86
2019-04-11T15:36:39.849Z,46.65
2019-04-11T15:39:05.602Z,45.96
2019-04-11T15:41:13.898Z,45.74
2019-04-11T15:43:42.266Z,45.85
2019-04-11T15:45:49.633Z,46.45
2019-04-11T15:48:20.140Z,46.60
2019-04-11T15:50:39.768Z,46.25
2019-04-11T15:52:49.185Z,46.60
2019-04-11T15:55:02.439Z,45.61
2019-04-11T15:57:26.734Z,46.03
2019-04-11T15:59:36.678Z,46.38
2019-04-11T16:02:04.303Z,46.93
2019-04-11T16:04:29.910Z,47.19
2019-04-11T16:06:55.323Z,46.86
2019-04-11T16:09:03.993Z,46.87
2019-04-11T16:11:12.386Z,47.45
2019-04-11T16:13:22.504Z,47.99
2019-04-11T16:15:34.848Z,48.04
2019-04-11T16:17:45.206Z,47.79
2019-04-11T16:19:55.705Z,47.82
2019-04-11T16:22:24.722Z,47.92
2019-04-11T16:24:33.252Z,47.84
2019-04-11T16:26:48.593Z,47.90
2019-04-11T16:28:59.202Z,48.23
2019-04-11T16:31:09.461Z,48.27
2019-04-11T16:33:25.053Z,48.12
2019-04-11T16:35:40.394Z,47.99
2019-04-11T16:37:52.512Z,48.12
2019-04-11T16:40:18.109Z,48.25
2019-04-11T16:42:27.802Z,48.31
2019-04-11T16:44:47.420Z,48.49
2019-04-11T16:47:12.811Z,48.53
2019-04-11T16:49:20.730Z,48.83
2019-04-11T16:51:31.075Z,49.17
2019-04-11T16:53:38.169Z,49.23
2019-04-11T16:55:45.990Z,49.43
2019-04-11T16:57:54.021Z,49.73
2019-04-11T17:00:01.815Z,49.86
2019-04-11T17:02:10.787Z,49.77
2019-04-11T17:04:18.569Z,49.57
2019-04-11T17:06:41.177Z,49.53
2019-04-11T17:08:51.689Z,49.28
2019-04-11T17:11:04.179Z,48.98
2019-04-11T17:13:11.965Z,48.89
2019-04-11T17:15:20.889Z,50.94
2019-04-11T17:17:30.612Z,51.41
2019-04-11T17:19:39.310Z,50.94
2019-04-11T17:21:48.424Z,50.08
2019-04-11T17:23:56.646Z,50.85
2019-04-11T17:26:06.271Z,50.32
2019-04-11T17:28:14.282Z,50.23
2019-04-11T17:30:24.531Z,50.22
2019-04-11T17:32:31.644Z,50.28
2019-04-11T17:34:39.936Z,50.93
2019-04-11T17:36:47.789Z,50.99
2019-04-11T17:38:55.584Z,50.95
2019-04-11T17:41:03.310Z,51.09
2019-04-11T17:43:13.448Z,50.78
2019-04-11T17:45:20.633Z,50.97
2019-04-11T17:47:28.551Z,51.12
2019-04-11T17:49:36.385Z,50.78
2019-04-11T17:51:55.357Z,50.98
2019-04-11T17:53:55.890Z,50.88
2019-04-11T17:56:03.682Z,50.69
2019-04-11T17:58:11.477Z,50.33
2019-04-11T18:00:29.937Z,50.25
2019-04-11T18:02:39.008Z,50.37
2019-04-11T18:04:48.179Z,50.96
2019-04-11T18:06:56.096Z,51.56
2019-04-11T18:09:06.100Z,51.65
2019-04-11T18:11:14.224Z,50.97
2019-04-11T18:13:22.032Z,51.82
2019-04-11T18:15:31.267Z,51.33
2019-04-11T18:17:40.763Z,51.39
2019-04-11T18:19:48.575Z,51.08
2019-04-11T18:22:07.454Z,50.98
2019-04-11T18:24:06.467Z,50.01
2019-04-11T18:26:14.650Z,49.99
2019-04-11T18:28:22.539Z,50.61
2019-04-11T18:30:30.315Z,50.26
2019-04-11T18:32:39.555Z,49.32
2019-04-11T18:34:47.255Z,50.82
2019-04-11T18:36:55.026Z,51.57
2019-04-11T18:39:05.963Z,52.12
2019-04-11T18:41:14.011Z,52.65
2019-04-11T18:43:25.441Z,52.83
2019-04-11T18:45:34.089Z,53.08
2019-04-11T18:47:41.776Z,53.30
2019-04-11T18:49:50.949Z,53.60
2019-04-11T18:51:59.147Z,53.06
2019-04-11T18:54:07.837Z,52.32
2019-04-11T18:56:15.851Z,51.99
2019-04-11T18:58:23.590Z,51.15
2019-04-11T19:00:31.542Z,50.26
2019-04-11T19:02:40.204Z,50.30
2019-04-11T19:04:48.478Z,47.74
2019-04-11T19:06:56.260Z,46.76
2019-04-11T19:09:06.192Z,46.64
2019-04-11T19:11:15.733Z,46.90
2019-04-11T19:13:24.135Z,46.02
2019-04-11T19:15:31.998Z,45.82
2019-04-11T19:17:39.896Z,46.83
2019-04-11T19:19:48.931Z,46.47
2019-04-11T19:21:57.146Z,46.81
2019-04-11T19:24:09.057Z,45.90
2019-04-11T19:26:15.313Z,45.86
2019-04-11T19:28:25.207Z,46.04
2019-04-11T19:30:32.708Z,46.34
2019-04-11T19:32:40.669Z,46.08
2019-04-11T19:34:48.346Z,46.54
2019-04-11T19:36:56.222Z,46.51
2019-04-11T19:39:05.951Z,46.78
2019-04-11T19:41:17.150Z,47.28
2019-04-11T19:43:24.302Z,46.76
2019-04-11T19:45:32.076Z,48.14
2019-04-11T19:47:39.778Z,48.04
2019-04-11T19:49:47.537Z,48.06
2019-04-11T19:51:55.465Z,48.12
2019-04-11T19:54:03.911Z,47.83
2019-04-11T19:56:16.348Z,47.79
2019-04-11T19:58:25.756Z,48.89
2019-04-11T20:00:33.982Z,49.22
2019-04-11T20:02:41.885Z,48.87
2019-04-11T20:04:49.769Z,49.26
2019-04-11T20:06:57.586Z,48.82
2019-04-11T20:09:08.671Z,48.75
2019-04-11T20:11:18.124Z,48.94
2019-04-11T20:13:25.990Z,50.04
2019-04-11T20:15:37.183Z,49.46
2019-04-11T20:17:44.936Z,49.25
2019-04-11T20:20:01.150Z,49.03
2019-04-11T20:22:02.236Z,49.29
2019-04-11T20:24:14.112Z,49.76
2019-04-11T20:26:20.949Z,49.18
2019-04-11T20:28:29.050Z,49.23
2019-04-11T20:30:36.933Z,49.95
2019-04-11T20:32:44.715Z,49.71
2019-04-11T20:34:53.885Z,49.72
2019-04-11T20:37:02.293Z,49.81
2019-04-11T20:39:15.031Z,49.84
2019-04-11T20:41:23.287Z,49.51
2019-04-11T20:43:32.445Z,49.18
2019-04-11T20:45:42.060Z,49.52
2019-04-11T20:47:51.035Z,50.36
2019-04-11T20:49:58.716Z,50.22
2019-04-11T20:52:06.379Z,49.71
2019-04-11T20:54:14.153Z,50.55
2019-04-11T20:56:24.302Z,50.18
2019-04-11T20:58:32.493Z,50.67
2019-04-11T21:00:50.319Z,50.88
2019-04-11T21:02:50.337Z,50.71
2019-04-11T21:04:58.915Z,51.15
2019-04-11T21:07:07.629Z,51.20
2019-04-11T21:09:15.478Z,51.36
2019-04-11T21:11:24.076Z,51.47
2019-04-11T21:13:32.746Z,50.70
2019-04-11T21:15:40.524Z,51.29
2019-04-11T21:17:48.376Z,51.63
2019-04-11T21:19:56.078Z,50.93
2019-04-11T21:22:03.849Z,51.77
2019-04-11T21:24:11.722Z,51.60
2019-04-11T21:26:19.602Z,51.46
2019-04-11T21:28:29.809Z,51.26
2019-04-11T21:30:36.868Z,51.72
2019-04-11T21:32:44.741Z,51.13
2019-04-11T21:34:52.611Z,50.65
2019-04-11T21:37:02.535Z,51.44
2019-04-11T21:39:09.885Z,51.46
2019-04-11T21:41:17.758Z,51.20
2019-04-11T21:43:25.576Z,51.88
2019-04-11T21:45:35.855Z,51.79
2019-04-11T21:47:44.873Z,51.41
2019-04-11T21:49:52.718Z,50.88
2019-04-11T21:52:03.065Z,50.59
2019-04-11T21:54:14.650Z,50.45
2019-04-11T21:56:20.484Z,50.35
2019-04-11T21:58:28.180Z,50.65
2019-04-11T22:00:41.062Z,51.18
2019-04-11T22:02:51.914Z,51.10
2019-04-11T22:05:00.103Z,51.11
2019-04-11T22:07:07.964Z,51.50
2019-04-11T22:09:16.236Z,51.15
2019-04-11T22:11:24.045Z,51.82
2019-04-11T22:13:31.898Z,51.65
2019-04-11T22:15:42.123Z,50.87
2019-04-11T22:17:49.173Z,51.20
2019-04-11T22:19:56.981Z,50.76
2019-04-11T22:22:04.797Z,50.21
2019-04-11T22:24:12.502Z,51.43
2019-04-11T22:26:20.185Z,51.63
2019-04-11T22:28:27.859Z,51.02
2019-04-11T22:30:35.588Z,51.15
2019-04-11T22:32:45.008Z,50.70
2019-04-11T22:34:52.850Z,50.71
2019-04-11T22:37:00.690Z,50.69
2019-04-11T22:39:10.685Z,51.65
2019-04-11T22:41:19.626Z,51.36
2019-04-11T22:43:27.336Z,52.53
2019-04-11T22:45:37.820Z,52.97
2019-04-11T22:47:45.876Z,52.70
2019-04-11T22:49:53.891Z,52.79
2019-04-11T22:52:01.755Z,52.94
2019-04-11T22:54:12.922Z,53.10
2019-04-11T22:56:19.035Z,53.09
2019-04-11T22:58:26.818Z,53.04
2019-04-11T23:00:34.665Z,53.46
2019-04-11T23:02:48.299Z,53.29
2019-04-11T23:05:14.947Z,53.28
2019-04-11T23:07:40.351Z,53.25
2019-04-11T23:10:07.631Z,53.99
2019-04-11T23:12:32.532Z,53.60
2019-04-11T23:14:57.525Z,52.68
2019-04-11T23:17:23.818Z,53.30
2019-04-11T23:19:31.608Z,53.55
2019-04-11T23:21:39.532Z,52.96
2019-04-11T23:23:47.236Z,53.21
2019-04-11T23:25:56.091Z,53.46
2019-04-11T23:28:03.895Z,53.57
2019-04-11T23:30:15.917Z,53.20
2019-04-11T23:32:23.276Z,53.82
2019-04-11T23:34:31.032Z,53.35
2019-04-11T23:36:38.830Z,53.15
2019-04-11T23:38:46.498Z,53.97
2019-04-11T23:40:54.242Z,53.49
2019-04-11T23:43:02.044Z,53.70
2019-04-11T23:45:09.887Z,53.32
2019-04-11T23:47:20.130Z,52.93
2019-04-11T23:49:28.279Z,53.02
2019-04-11T23:51:35.962Z,53.18
2019-04-11T23:53:43.733Z,53.21
2019-04-11T23:55:52.411Z,53.15
2019-04-11T23:58:01.696Z,53.56
